sensor_id;sensor_type;location;lat;lon;timestamp;P1;durP1;ratioP1;P2;durP2;ratioP2
7969;SDS011;4030;52.362;9.206;2023-05-23T00:02:04;7.32;;;6.72;;
7969;SDS011;4030;52.362;9.206;2023-05-23T00:04:33;7.72;;;7.03;;
7969;SDS011;4030;52.362;9.206;2023-05-23T00:07:02;7.78;;;6.97;;
7969;SDS011;4030;52.362;9.206;2023-05-23T00:09:28;7.70;;;6.97;;
7969;SDS011;4030;52.362;9.206;2023-05-23T00:11:54;7.93;;;7.07;;
7969;SDS011;4030;52.362;9.206;2023-05-23T00:14:20;8.25;;;7.45;;
7969;SDS011;4030;52.362;9.206;2023-05-23T00:16:47;7.85;;;7.15;;
7969;SDS011;4030;52.362;9.206;2023-05-23T00:19:13;8.73;;;7.10;;
7969;SDS011;4030;52.362;9.206;2023-05-23T00:21:40;7.85;;;7.05;;
7969;SDS011;4030;52.362;9.206;2023-05-23T00:24:12;7.28;;;6.68;;
7969;SDS011;4030;52.362;9.206;2023-05-23T00:26:38;7.72;;;6.88;;
7969;SDS011;4030;52.362;9.206;2023-05-23T00:29:04;7.68;;;6.97;;
7969;SDS011;4030;52.362;9.206;2023-05-23T00:31:29;6.63;;;6.03;;
7969;SDS011;4030;52.362;9.206;2023-05-23T00:33:55;7.20;;;6.57;;
7969;SDS011;4030;52.362;9.206;2023-05-23T00:36:21;7.20;;;6.40;;
7969;SDS011;4030;52.362;9.206;2023-05-23T00:38:47;6.10;;;5.50;;
7969;SDS011;4030;52.362;9.206;2023-05-23T00:41:13;6.35;;;5.80;;
7969;SDS011;4030;52.362;9.206;2023-05-23T00:43:40;6.80;;;6.25;;
7969;SDS011;4030;52.362;9.206;2023-05-23T00:46:06;6.30;;;5.70;;
7969;SDS011;4030;52.362;9.206;2023-05-23T00:48:32;7.55;;;6.18;;
7969;SDS011;4030;52.362;9.206;2023-05-23T00:50:58;6.15;;;5.55;;
7969;SDS011;4030;52.362;9.206;2023-05-23T00:53:24;6.53;;;5.93;;
7969;SDS011;4030;52.362;9.206;2023-05-23T00:55:50;6.45;;;5.47;;
7969;SDS011;4030;52.362;9.206;2023-05-23T00:58:16;6.43;;;5.82;;
7969;SDS011;4030;52.362;9.206;2023-05-23T01:00:42;6.57;;;5.70;;
7969;SDS011;4030;52.362;9.206;2023-05-23T01:03:11;6.35;;;5.75;;
7969;SDS011;4030;52.362;9.206;2023-05-23T01:05:42;6.00;;;5.50;;
7969;SDS011;4030;52.362;9.206;2023-05-23T01:08:08;6.07;;;5.47;;
7969;SDS011;4030;52.362;9.206;2023-05-23T01:10:34;6.38;;;5.45;;
7969;SDS011;4030;52.362;9.206;2023-05-23T01:18:24;5.97;;;5.47;;
7969;SDS011;4030;52.362;9.206;2023-05-23T01:21:11;5.85;;;5.32;;
7969;SDS011;4030;52.362;9.206;2023-05-23T01:29:27;6.50;;;5.90;;
7969;SDS011;4030;52.362;9.206;2023-05-23T01:31:57;6.45;;;5.90;;
7969;SDS011;4030;52.362;9.206;2023-05-23T01:34:24;6.10;;;5.60;;
7969;SDS011;4030;52.362;9.206;2023-05-23T01:36:53;6.65;;;5.95;;
7969;SDS011;4030;52.362;9.206;2023-05-23T01:39:22;6.75;;;6.07;;
7969;SDS011;4030;52.362;9.206;2023-05-23T01:41:48;6.65;;;6.05;;
7969;SDS011;4030;52.362;9.206;2023-05-23T01:44:16;6.50;;;5.90;;
7969;SDS011;4030;52.362;9.206;2023-05-23T01:46:42;6.78;;;6.18;;
7969;SDS011;4030;52.362;9.206;2023-05-23T01:49:09;6.40;;;5.90;;
7969;SDS011;4030;52.362;9.206;2023-05-23T01:51:37;6.30;;;5.70;;
7969;SDS011;4030;52.362;9.206;2023-05-23T01:54:03;6.80;;;6.20;;
7969;SDS011;4030;52.362;9.206;2023-05-23T01:56:29;7.00;;;6.40;;
7969;SDS011;4030;52.362;9.206;2023-05-23T01:58:55;6.70;;;6.00;;
7969;SDS011;4030;52.362;9.206;2023-05-23T02:01:21;6.75;;;6.05;;
7969;SDS011;4030;52.362;9.206;2023-05-23T02:03:47;6.55;;;5.95;;
7969;SDS011;4030;52.362;9.206;2023-05-23T02:06:13;6.32;;;5.72;;
7969;SDS011;4030;52.362;9.206;2023-05-23T02:08:39;6.22;;;5.72;;
7969;SDS011;4030;52.362;9.206;2023-05-23T02:11:04;6.53;;;5.90;;
7969;SDS011;4030;52.362;9.206;2023-05-23T02:13:32;6.32;;;5.82;;
7969;SDS011;4030;52.362;9.206;2023-05-23T02:15:58;6.70;;;6.10;;
7969;SDS011;4030;52.362;9.206;2023-05-23T02:18:24;7.25;;;5.80;;
7969;SDS011;4030;52.362;9.206;2023-05-23T02:20:50;6.53;;;5.70;;
7969;SDS011;4030;52.362;9.206;2023-05-23T02:23:16;6.32;;;5.45;;
7969;SDS011;4030;52.362;9.206;2023-05-23T02:25:42;7.50;;;5.80;;
7969;SDS011;4030;52.362;9.206;2023-05-23T02:28:08;6.60;;;6.00;;
7969;SDS011;4030;52.362;9.206;2023-05-23T02:30:35;7.15;;;6.28;;
7969;SDS011;4030;52.362;9.206;2023-05-23T02:33:03;6.30;;;5.70;;
7969;SDS011;4030;52.362;9.206;2023-05-23T02:35:30;6.32;;;5.70;;
7969;SDS011;4030;52.362;9.206;2023-05-23T02:37:56;6.65;;;5.95;;
7969;SDS011;4030;52.362;9.206;2023-05-23T02:40:22;6.60;;;6.00;;
7969;SDS011;4030;52.362;9.206;2023-05-23T02:42:47;6.22;;;5.65;;
7969;SDS011;4030;52.362;9.206;2023-05-23T02:45:15;6.60;;;5.90;;
7969;SDS011;4030;52.362;9.206;2023-05-23T02:47:41;6.53;;;5.93;;
7969;SDS011;4030;52.362;9.206;2023-05-23T02:50:06;6.70;;;6.03;;
7969;SDS011;4030;52.362;9.206;2023-05-23T02:52:32;6.57;;;5.88;;
7969;SDS011;4030;52.362;9.206;2023-05-23T02:54:58;5.95;;;5.35;;
7969;SDS011;4030;52.362;9.206;2023-05-23T02:57:24;6.07;;;5.57;;
7969;SDS011;4030;52.362;9.206;2023-05-23T02:59:50;5.70;;;5.00;;
7969;SDS011;4030;52.362;9.206;2023-05-23T03:02:15;6.22;;;5.47;;
7969;SDS011;4030;52.362;9.206;2023-05-23T03:04:41;5.78;;;5.28;;
7969;SDS011;4030;52.362;9.206;2023-05-23T03:07:07;6.07;;;5.47;;
7969;SDS011;4030;52.362;9.206;2023-05-23T03:09:35;5.57;;;5.07;;
7969;SDS011;4030;52.362;9.206;2023-05-23T03:12:00;5.10;;;4.60;;
7969;SDS011;4030;52.362;9.206;2023-05-23T03:14:26;5.55;;;4.90;;
7969;SDS011;4030;52.362;9.206;2023-05-23T03:16:52;5.53;;;5.00;;
7969;SDS011;4030;52.362;9.206;2023-05-23T03:19:17;5.20;;;4.80;;
7969;SDS011;4030;52.362;9.206;2023-05-23T03:21:43;4.75;;;4.32;;
7969;SDS011;4030;52.362;9.206;2023-05-23T03:24:09;5.13;;;4.63;;
7969;SDS011;4030;52.362;9.206;2023-05-23T03:26:35;5.25;;;4.75;;
7969;SDS011;4030;52.362;9.206;2023-05-23T03:29:01;4.82;;;4.40;;
7969;SDS011;4030;52.362;9.206;2023-05-23T03:31:27;4.50;;;4.10;;
7969;SDS011;4030;52.362;9.206;2023-05-23T03:33:52;4.50;;;4.10;;
7969;SDS011;4030;52.362;9.206;2023-05-23T03:36:18;4.57;;;4.18;;
7969;SDS011;4030;52.362;9.206;2023-05-23T03:38:45;4.32;;;3.92;;
7969;SDS011;4030;52.362;9.206;2023-05-23T03:41:11;5.25;;;3.92;;
7969;SDS011;4030;52.362;9.206;2023-05-23T03:43:37;4.68;;;4.00;;
7969;SDS011;4030;52.362;9.206;2023-05-23T03:46:02;4.65;;;3.92;;
7969;SDS011;4030;52.362;9.206;2023-05-23T03:48:28;4.32;;;3.92;;
7969;SDS011;4030;52.362;9.206;2023-05-23T03:50:54;4.13;;;3.75;;
7969;SDS011;4030;52.362;9.206;2023-05-23T03:53:20;4.82;;;4.00;;
7969;SDS011;4030;52.362;9.206;2023-05-23T03:55:46;4.03;;;3.70;;
7969;SDS011;4030;52.362;9.206;2023-05-23T03:58:12;4.15;;;3.75;;
7969;SDS011;4030;52.362;9.206;2023-05-23T04:00:37;3.63;;;3.33;;
7969;SDS011;4030;52.362;9.206;2023-05-23T04:03:03;3.80;;;3.50;;
7969;SDS011;4030;52.362;9.206;2023-05-23T04:05:29;3.72;;;3.42;;
7969;SDS011;4030;52.362;9.206;2023-05-23T04:07:55;4.18;;;3.78;;
7969;SDS011;4030;52.362;9.206;2023-05-23T04:10:20;3.78;;;3.40;;
7969;SDS011;4030;52.362;9.206;2023-05-23T04:12:46;3.70;;;3.40;;
7969;SDS011;4030;52.362;9.206;2023-05-23T04:15:12;3.78;;;3.47;;
7969;SDS011;4030;52.362;9.206;2023-05-23T04:17:38;4.68;;;3.22;;
7969;SDS011;4030;52.362;9.206;2023-05-23T04:20:07;3.60;;;3.30;;
7969;SDS011;4030;52.362;9.206;2023-05-23T04:22:36;4.20;;;3.63;;
7969;SDS011;4030;52.362;9.206;2023-05-23T04:25:02;4.18;;;3.63;;
7969;SDS011;4030;52.362;9.206;2023-05-23T04:27:29;4.10;;;3.42;;
7969;SDS011;4030;52.362;9.206;2023-05-23T04:29:55;3.13;;;2.92;;
7969;SDS011;4030;52.362;9.206;2023-05-23T04:32:22;3.45;;;3.15;;
7969;SDS011;4030;52.362;9.206;2023-05-23T04:34:48;3.30;;;3.00;;
7969;SDS011;4030;52.362;9.206;2023-05-23T04:37:14;3.20;;;2.90;;
7969;SDS011;4030;52.362;9.206;2023-05-23T04:39:41;3.67;;;3.13;;
7969;SDS011;4030;52.362;9.206;2023-05-23T04:42:07;3.67;;;3.22;;
7969;SDS011;4030;52.362;9.206;2023-05-23T04:44:32;3.38;;;3.08;;
7969;SDS011;4030;52.362;9.206;2023-05-23T04:47:01;3.10;;;2.80;;
7969;SDS011;4030;52.362;9.206;2023-05-23T04:49:27;3.47;;;3.17;;
7969;SDS011;4030;52.362;9.206;2023-05-23T04:51:53;5.00;;;3.47;;
7969;SDS011;4030;52.362;9.206;2023-05-23T04:54:19;3.63;;;3.33;;
7969;SDS011;4030;52.362;9.206;2023-05-23T04:56:44;4.07;;;3.53;;
7969;SDS011;4030;52.362;9.206;2023-05-23T04:59:10;4.03;;;3.50;;
7969;SDS011;4030;52.362;9.206;2023-05-23T05:01:37;4.18;;;3.33;;
7969;SDS011;4030;52.362;9.206;2023-05-23T05:04:06;3.58;;;3.10;;
7969;SDS011;4030;52.362;9.206;2023-05-23T05:06:31;3.55;;;3.25;;
7969;SDS011;4030;52.362;9.206;2023-05-23T05:08:57;3.80;;;3.40;;
7969;SDS011;4030;52.362;9.206;2023-05-23T05:11:24;3.97;;;3.58;;
7969;SDS011;4030;52.362;9.206;2023-05-23T05:13:51;3.80;;;3.40;;
7969;SDS011;4030;52.362;9.206;2023-05-23T05:16:16;4.07;;;3.47;;
7969;SDS011;4030;52.362;9.206;2023-05-23T05:18:42;3.75;;;3.42;;
7969;SDS011;4030;52.362;9.206;2023-05-23T05:21:08;4.03;;;3.60;;
7969;SDS011;4030;52.362;9.206;2023-05-23T05:23:34;3.80;;;3.40;;
7969;SDS011;4030;52.362;9.206;2023-05-23T05:26:00;4.32;;;3.92;;
7969;SDS011;4030;52.362;9.206;2023-05-23T05:28:27;3.78;;;3.38;;
7969;SDS011;4030;52.362;9.206;2023-05-23T05:30:52;4.38;;;3.90;;
7969;SDS011;4030;52.362;9.206;2023-05-23T05:33:18;3.85;;;3.55;;
7969;SDS011;4030;52.362;9.206;2023-05-23T05:35:47;4.28;;;3.88;;
7969;SDS011;4030;52.362;9.206;2023-05-23T05:38:15;4.40;;;3.75;;
7969;SDS011;4030;52.362;9.206;2023-05-23T05:40:41;4.18;;;3.40;;
7969;SDS011;4030;52.362;9.206;2023-05-23T05:43:06;4.00;;;3.60;;
7969;SDS011;4030;52.362;9.206;2023-05-23T05:45:32;4.28;;;3.78;;
7969;SDS011;4030;52.362;9.206;2023-05-23T05:47:58;4.30;;;3.90;;
7969;SDS011;4030;52.362;9.206;2023-05-23T05:50:23;4.40;;;4.00;;
7969;SDS011;4030;52.362;9.206;2023-05-23T05:52:49;3.90;;;3.60;;
7969;SDS011;4030;52.362;9.206;2023-05-23T05:55:15;4.50;;;3.95;;
7969;SDS011;4030;52.362;9.206;2023-05-23T05:57:40;4.40;;;4.00;;
7969;SDS011;4030;52.362;9.206;2023-05-23T06:00:07;4.32;;;3.92;;
7969;SDS011;4030;52.362;9.206;2023-05-23T06:02:38;4.85;;;4.28;;
7969;SDS011;4030;52.362;9.206;2023-05-23T06:05:07;4.72;;;4.25;;
7969;SDS011;4030;52.362;9.206;2023-05-23T06:07:36;5.18;;;4.30;;
7969;SDS011;4030;52.362;9.206;2023-05-23T06:10:05;4.88;;;4.38;;
7969;SDS011;4030;52.362;9.206;2023-05-23T06:12:32;5.03;;;4.50;;
7969;SDS011;4030;52.362;9.206;2023-05-23T06:14:59;4.32;;;3.92;;
7969;SDS011;4030;52.362;9.206;2023-05-23T06:17:24;5.38;;;4.43;;
7969;SDS011;4030;52.362;9.206;2023-05-23T06:19:50;4.88;;;4.30;;
7969;SDS011;4030;52.362;9.206;2023-05-23T06:22:16;4.50;;;4.10;;
7969;SDS011;4030;52.362;9.206;2023-05-23T06:24:42;4.80;;;4.30;;
7969;SDS011;4030;52.362;9.206;2023-05-23T06:27:08;4.25;;;3.85;;
7969;SDS011;4030;52.362;9.206;2023-05-23T06:29:33;5.07;;;4.32;;
7969;SDS011;4030;52.362;9.206;2023-05-23T06:32:02;4.78;;;4.03;;
7969;SDS011;4030;52.362;9.206;2023-05-23T06:34:28;4.40;;;4.00;;
7969;SDS011;4030;52.362;9.206;2023-05-23T06:36:53;4.55;;;3.90;;
7969;SDS011;4030;52.362;9.206;2023-05-23T06:39:19;8.15;;;4.60;;
7969;SDS011;4030;52.362;9.206;2023-05-23T06:41:45;4.55;;;3.85;;
7969;SDS011;4030;52.362;9.206;2023-05-23T06:44:12;5.97;;;3.90;;
7969;SDS011;4030;52.362;9.206;2023-05-23T06:46:38;4.85;;;4.10;;
7969;SDS011;4030;52.362;9.206;2023-05-23T06:49:03;5.25;;;4.47;;
7969;SDS011;4030;52.362;9.206;2023-05-23T06:51:29;5.95;;;4.00;;
7969;SDS011;4030;52.362;9.206;2023-05-23T06:53:55;4.80;;;3.80;;
7969;SDS011;4030;52.362;9.206;2023-05-23T06:56:22;4.95;;;4.22;;
7969;SDS011;4030;52.362;9.206;2023-05-23T06:58:47;4.53;;;3.85;;
7969;SDS011;4030;52.362;9.206;2023-05-23T07:01:13;4.75;;;3.72;;
7969;SDS011;4030;52.362;9.206;2023-05-23T07:03:39;6.10;;;3.80;;
7969;SDS011;4030;52.362;9.206;2023-05-23T07:06:07;4.35;;;3.83;;
7969;SDS011;4030;52.362;9.206;2023-05-23T07:08:32;5.18;;;3.78;;
7969;SDS011;4030;52.362;9.206;2023-05-23T07:10:58;4.60;;;3.63;;
7969;SDS011;4030;52.362;9.206;2023-05-23T07:13:24;3.83;;;3.15;;
7969;SDS011;4030;52.362;9.206;2023-05-23T07:15:50;4.47;;;3.70;;
7969;SDS011;4030;52.362;9.206;2023-05-23T07:18:15;5.32;;;3.22;;
7969;SDS011;4030;52.362;9.206;2023-05-23T07:20:41;3.72;;;3.05;;
7969;SDS011;4030;52.362;9.206;2023-05-23T07:23:07;5.05;;;3.35;;
7969;SDS011;4030;52.362;9.206;2023-05-23T07:25:32;4.15;;;3.15;;
7969;SDS011;4030;52.362;9.206;2023-05-23T07:27:58;3.88;;;3.30;;
7969;SDS011;4030;52.362;9.206;2023-05-23T07:30:24;4.45;;;3.00;;
7969;SDS011;4030;52.362;9.206;2023-05-23T07:32:49;3.97;;;3.20;;
7969;SDS011;4030;52.362;9.206;2023-05-23T07:35:16;4.75;;;3.55;;
7969;SDS011;4030;52.362;9.206;2023-05-23T07:37:42;3.78;;;3.45;;
7969;SDS011;4030;52.362;9.206;2023-05-23T07:40:08;3.92;;;3.55;;
7969;SDS011;4030;52.362;9.206;2023-05-23T07:42:35;4.20;;;3.50;;
7969;SDS011;4030;52.362;9.206;2023-05-23T07:45:01;4.07;;;3.38;;
7969;SDS011;4030;52.362;9.206;2023-05-23T07:47:27;4.15;;;3.35;;
7969;SDS011;4030;52.362;9.206;2023-05-23T07:49:53;4.32;;;3.78;;
7969;SDS011;4030;52.362;9.206;2023-05-23T07:52:19;3.90;;;3.50;;
7969;SDS011;4030;52.362;9.206;2023-05-23T07:54:45;4.90;;;3.88;;
7969;SDS011;4030;52.362;9.206;2023-05-23T07:57:10;5.65;;;3.45;;
7969;SDS011;4030;52.362;9.206;2023-05-23T07:59:36;3.95;;;3.47;;
7969;SDS011;4030;52.362;9.206;2023-05-23T08:02:02;4.90;;;3.75;;
7969;SDS011;4030;52.362;9.206;2023-05-23T08:04:28;5.60;;;3.70;;
7969;SDS011;4030;52.362;9.206;2023-05-23T08:06:55;4.95;;;3.88;;
7969;SDS011;4030;52.362;9.206;2023-05-23T08:09:21;5.47;;;3.63;;
7969;SDS011;4030;52.362;9.206;2023-05-23T08:11:48;4.38;;;3.67;;
7969;SDS011;4030;52.362;9.206;2023-05-23T08:14:13;4.38;;;3.40;;
7969;SDS011;4030;52.362;9.206;2023-05-23T08:16:39;7.47;;;3.90;;
7969;SDS011;4030;52.362;9.206;2023-05-23T08:19:05;4.85;;;3.60;;
7969;SDS011;4030;52.362;9.206;2023-05-23T08:21:31;4.55;;;3.40;;
7969;SDS011;4030;52.362;9.206;2023-05-23T08:23:57;5.07;;;3.70;;
7969;SDS011;4030;52.362;9.206;2023-05-23T08:26:23;6.43;;;3.75;;
7969;SDS011;4030;52.362;9.206;2023-05-23T08:28:48;4.55;;;3.50;;
7969;SDS011;4030;52.362;9.206;2023-05-23T08:31:14;3.38;;;3.08;;
7969;SDS011;4030;52.362;9.206;2023-05-23T08:33:40;4.72;;;3.35;;
7969;SDS011;4030;52.362;9.206;2023-05-23T08:36:06;5.75;;;3.40;;
7969;SDS011;4030;52.362;9.206;2023-05-23T08:38:32;4.32;;;3.10;;
7969;SDS011;4030;52.362;9.206;2023-05-23T08:40:58;4.43;;;3.20;;
7969;SDS011;4030;52.362;9.206;2023-05-23T08:43:26;5.55;;;3.10;;
7969;SDS011;4030;52.362;9.206;2023-05-23T08:45:52;4.07;;;2.97;;
7969;SDS011;4030;52.362;9.206;2023-05-23T08:48:19;5.35;;;2.42;;
7969;SDS011;4030;52.362;9.206;2023-05-23T08:50:46;4.10;;;2.80;;
7969;SDS011;4030;52.362;9.206;2023-05-23T08:53:16;2.97;;;2.50;;
7969;SDS011;4030;52.362;9.206;2023-05-23T08:55:46;3.22;;;2.17;;
7969;SDS011;4030;52.362;9.206;2023-05-23T08:58:12;3.30;;;2.17;;
7969;SDS011;4030;52.362;9.206;2023-05-23T09:00:39;3.40;;;2.53;;
7969;SDS011;4030;52.362;9.206;2023-05-23T09:03:06;2.80;;;1.90;;
7969;SDS011;4030;52.362;9.206;2023-05-23T09:05:33;2.85;;;1.88;;
7969;SDS011;4030;52.362;9.206;2023-05-23T09:07:59;2.50;;;1.85;;
7969;SDS011;4030;52.362;9.206;2023-05-23T09:10:24;3.13;;;1.52;;
7969;SDS011;4030;52.362;9.206;2023-05-23T09:12:54;3.25;;;1.55;;
7969;SDS011;4030;52.362;9.206;2023-05-23T09:15:20;2.45;;;1.50;;
7969;SDS011;4030;52.362;9.206;2023-05-23T09:17:49;3.15;;;1.70;;
7969;SDS011;4030;52.362;9.206;2023-05-23T09:20:16;2.63;;;1.63;;
7969;SDS011;4030;52.362;9.206;2023-05-23T09:22:45;1.92;;;1.58;;
7969;SDS011;4030;52.362;9.206;2023-05-23T09:25:12;3.20;;;1.35;;
7969;SDS011;4030;52.362;9.206;2023-05-23T09:27:39;2.25;;;1.27;;
7969;SDS011;4030;52.362;9.206;2023-05-23T09:30:05;2.92;;;1.40;;
7969;SDS011;4030;52.362;9.206;2023-05-23T09:32:32;2.75;;;1.40;;
7969;SDS011;4030;52.362;9.206;2023-05-23T09:34:58;1.23;;;1.00;;
7969;SDS011;4030;52.362;9.206;2023-05-23T09:37:31;2.65;;;1.10;;
7969;SDS011;4030;52.362;9.206;2023-05-23T09:40:10;1.92;;;1.30;;
7969;SDS011;4030;52.362;9.206;2023-05-23T09:42:46;2.25;;;1.20;;
7969;SDS011;4030;52.362;9.206;2023-05-23T09:45:12;2.70;;;1.33;;
7969;SDS011;4030;52.362;9.206;2023-05-23T09:47:49;2.35;;;1.10;;
7969;SDS011;4030;52.362;9.206;2023-05-23T09:50:16;1.55;;;1.17;;
7969;SDS011;4030;52.362;9.206;2023-05-23T09:52:42;1.80;;;1.02;;
7969;SDS011;4030;52.362;9.206;2023-05-23T09:55:08;2.20;;;1.20;;
7969;SDS011;4030;52.362;9.206;2023-05-23T09:57:34;2.00;;;1.35;;
7969;SDS011;4030;52.362;9.206;2023-05-23T10:00:06;3.42;;;1.42;;
7969;SDS011;4030;52.362;9.206;2023-05-23T10:02:53;5.35;;;1.52;;
7969;SDS011;4030;52.362;9.206;2023-05-23T10:05:30;6.38;;;1.67;;
7969;SDS011;4030;52.362;9.206;2023-05-23T10:11:15;3.83;;;1.77;;
7969;SDS011;4030;52.362;9.206;2023-05-23T10:13:57;6.07;;;1.95;;
7969;SDS011;4030;52.362;9.206;2023-05-23T10:16:27;4.10;;;1.85;;
7969;SDS011;4030;52.362;9.206;2023-05-23T10:19:09;3.13;;;2.03;;
7969;SDS011;4030;52.362;9.206;2023-05-23T10:21:49;4.55;;;1.85;;
7969;SDS011;4030;52.362;9.206;2023-05-23T10:24:25;3.38;;;2.10;;
7969;SDS011;4030;52.362;9.206;2023-05-23T10:26:52;4.75;;;2.30;;
7969;SDS011;4030;52.362;9.206;2023-05-23T10:29:20;3.72;;;1.98;;
7969;SDS011;4030;52.362;9.206;2023-05-23T10:31:47;3.67;;;2.10;;
7969;SDS011;4030;52.362;9.206;2023-05-23T10:37:05;3.00;;;1.83;;
7969;SDS011;4030;52.362;9.206;2023-05-23T10:39:40;3.70;;;2.08;;
7969;SDS011;4030;52.362;9.206;2023-05-23T10:42:18;3.80;;;2.00;;
7969;SDS011;4030;52.362;9.206;2023-05-23T10:45:12;4.43;;;2.00;;
7969;SDS011;4030;52.362;9.206;2023-05-23T10:47:49;4.97;;;1.98;;
7969;SDS011;4030;52.362;9.206;2023-05-23T10:50:32;2.90;;;2.03;;
7969;SDS011;4030;52.362;9.206;2023-05-23T10:53:01;4.82;;;2.50;;
7969;SDS011;4030;52.362;9.206;2023-05-23T10:55:32;4.38;;;2.30;;
7969;SDS011;4030;52.362;9.206;2023-05-23T10:58:09;4.85;;;2.25;;
7969;SDS011;4030;52.362;9.206;2023-05-23T11:00:55;3.75;;;2.28;;
7969;SDS011;4030;52.362;9.206;2023-05-23T11:03:48;4.07;;;2.17;;
7969;SDS011;4030;52.362;9.206;2023-05-23T11:09:11;4.78;;;2.00;;
7969;SDS011;4030;52.362;9.206;2023-05-23T11:14:15;4.60;;;2.38;;
7969;SDS011;4030;52.362;9.206;2023-05-23T11:16:41;4.45;;;2.20;;
7969;SDS011;4030;52.362;9.206;2023-05-23T11:21:44;5.65;;;2.10;;
7969;SDS011;4030;52.362;9.206;2023-05-23T11:24:13;7.43;;;2.20;;
7969;SDS011;4030;52.362;9.206;2023-05-23T11:26:39;5.68;;;2.65;;
7969;SDS011;4030;52.362;9.206;2023-05-23T11:29:08;5.00;;;2.20;;
7969;SDS011;4030;52.362;9.206;2023-05-23T11:31:37;5.00;;;2.20;;
7969;SDS011;4030;52.362;9.206;2023-05-23T11:34:04;4.10;;;2.28;;
7969;SDS011;4030;52.362;9.206;2023-05-23T11:36:31;4.00;;;2.15;;
7969;SDS011;4030;52.362;9.206;2023-05-23T11:38:57;3.67;;;2.00;;
7969;SDS011;4030;52.362;9.206;2023-05-23T11:41:30;4.68;;;2.20;;
7969;SDS011;4030;52.362;9.206;2023-05-23T11:43:57;5.80;;;2.33;;
7969;SDS011;4030;52.362;9.206;2023-05-23T11:46:23;4.22;;;2.35;;
7969;SDS011;4030;52.362;9.206;2023-05-23T11:48:49;4.07;;;2.15;;
7969;SDS011;4030;52.362;9.206;2023-05-23T11:51:15;5.90;;;2.30;;
7969;SDS011;4030;52.362;9.206;2023-05-23T11:53:41;3.90;;;2.10;;
7969;SDS011;4030;52.362;9.206;2023-05-23T11:56:07;4.80;;;2.30;;
7969;SDS011;4030;52.362;9.206;2023-05-23T11:58:34;4.95;;;2.03;;
7969;SDS011;4030;52.362;9.206;2023-05-23T12:01:07;4.47;;;2.25;;
7969;SDS011;4030;52.362;9.206;2023-05-23T12:03:35;4.40;;;2.35;;
7969;SDS011;4030;52.362;9.206;2023-05-23T12:06:13;5.15;;;2.22;;
7969;SDS011;4030;52.362;9.206;2023-05-23T12:08:40;5.10;;;2.25;;
7969;SDS011;4030;52.362;9.206;2023-05-23T12:11:08;4.65;;;1.83;;
7969;SDS011;4030;52.362;9.206;2023-05-23T12:13:34;4.10;;;2.10;;
7969;SDS011;4030;52.362;9.206;2023-05-23T12:16:00;5.28;;;2.38;;
7969;SDS011;4030;52.362;9.206;2023-05-23T12:18:27;5.88;;;2.60;;
7969;SDS011;4030;52.362;9.206;2023-05-23T12:20:58;5.60;;;2.53;;
7969;SDS011;4030;52.362;9.206;2023-05-23T12:23:25;4.93;;;2.10;;
7969;SDS011;4030;52.362;9.206;2023-05-23T12:25:52;5.18;;;2.22;;
7969;SDS011;4030;52.362;9.206;2023-05-23T12:28:20;4.43;;;2.13;;
7969;SDS011;4030;52.362;9.206;2023-05-23T12:30:58;4.57;;;2.17;;
7969;SDS011;4030;52.362;9.206;2023-05-23T12:33:36;5.60;;;2.10;;
7969;SDS011;4030;52.362;9.206;2023-05-23T12:36:03;5.93;;;2.50;;
7969;SDS011;4030;52.362;9.206;2023-05-23T12:38:31;4.70;;;2.13;;
7969;SDS011;4030;52.362;9.206;2023-05-23T12:43:53;5.72;;;2.25;;
7969;SDS011;4030;52.362;9.206;2023-05-23T12:46:20;4.97;;;2.38;;
7969;SDS011;4030;52.362;9.206;2023-05-23T12:48:50;4.00;;;2.10;;
7969;SDS011;4030;52.362;9.206;2023-05-23T12:51:15;4.75;;;2.50;;
7969;SDS011;4030;52.362;9.206;2023-05-23T12:53:41;6.45;;;2.10;;
7969;SDS011;4030;52.362;9.206;2023-05-23T12:56:07;5.75;;;2.30;;
7969;SDS011;4030;52.362;9.206;2023-05-23T12:58:33;6.25;;;2.40;;
7969;SDS011;4030;52.362;9.206;2023-05-23T13:00:59;6.43;;;2.60;;
7969;SDS011;4030;52.362;9.206;2023-05-23T13:03:26;5.32;;;2.50;;
7969;SDS011;4030;52.362;9.206;2023-05-23T13:05:55;4.95;;;2.30;;
7969;SDS011;4030;52.362;9.206;2023-05-23T13:08:21;5.10;;;2.65;;
7969;SDS011;4030;52.362;9.206;2023-05-23T13:10:47;7.57;;;2.30;;
7969;SDS011;4030;52.362;9.206;2023-05-23T13:13:13;4.60;;;2.47;;
7969;SDS011;4030;52.362;9.206;2023-05-23T13:15:39;6.55;;;2.47;;
7969;SDS011;4030;52.362;9.206;2023-05-23T13:18:05;4.70;;;2.33;;
7969;SDS011;4030;52.362;9.206;2023-05-23T13:20:30;4.72;;;2.25;;
7969;SDS011;4030;52.362;9.206;2023-05-23T13:22:56;5.80;;;2.83;;
7969;SDS011;4030;52.362;9.206;2023-05-23T13:25:22;5.47;;;2.63;;
7969;SDS011;4030;52.362;9.206;2023-05-23T13:27:49;4.72;;;2.47;;
7969;SDS011;4030;52.362;9.206;2023-05-23T13:30:15;5.63;;;2.70;;
7969;SDS011;4030;52.362;9.206;2023-05-23T13:32:40;4.60;;;2.40;;
7969;SDS011;4030;52.362;9.206;2023-05-23T13:35:06;7.35;;;2.90;;
7969;SDS011;4030;52.362;9.206;2023-05-23T13:37:32;5.05;;;2.40;;
7969;SDS011;4030;52.362;9.206;2023-05-23T13:40:00;5.63;;;2.72;;
7969;SDS011;4030;52.362;9.206;2023-05-23T13:42:27;5.35;;;2.60;;
7969;SDS011;4030;52.362;9.206;2023-05-23T13:44:53;6.38;;;2.60;;
7969;SDS011;4030;52.362;9.206;2023-05-23T13:47:18;8.85;;;3.10;;
7969;SDS011;4030;52.362;9.206;2023-05-23T13:49:44;4.80;;;2.50;;
7969;SDS011;4030;52.362;9.206;2023-05-23T13:52:10;4.53;;;2.70;;
7969;SDS011;4030;52.362;9.206;2023-05-23T13:54:36;4.50;;;2.67;;
7969;SDS011;4030;52.362;9.206;2023-05-23T13:57:02;5.70;;;2.60;;
7969;SDS011;4030;52.362;9.206;2023-05-23T13:59:28;6.40;;;2.88;;
7969;SDS011;4030;52.362;9.206;2023-05-23T14:01:54;5.20;;;2.60;;
7969;SDS011;4030;52.362;9.206;2023-05-23T14:04:19;5.63;;;2.85;;
7969;SDS011;4030;52.362;9.206;2023-05-23T14:06:45;4.60;;;2.42;;
7969;SDS011;4030;52.362;9.206;2023-05-23T14:09:11;5.50;;;2.72;;
7969;SDS011;4030;52.362;9.206;2023-05-23T14:11:37;6.45;;;2.63;;
7969;SDS011;4030;52.362;9.206;2023-05-23T14:14:03;5.90;;;2.50;;
7969;SDS011;4030;52.362;9.206;2023-05-23T14:16:29;4.15;;;2.50;;
7969;SDS011;4030;52.362;9.206;2023-05-23T14:18:55;4.32;;;2.60;;
7969;SDS011;4030;52.362;9.206;2023-05-23T14:21:21;6.28;;;2.42;;
7969;SDS011;4030;52.362;9.206;2023-05-23T14:23:47;5.20;;;2.45;;
7969;SDS011;4030;52.362;9.206;2023-05-23T14:26:12;6.07;;;2.50;;
7969;SDS011;4030;52.362;9.206;2023-05-23T14:28:38;6.30;;;2.45;;
7969;SDS011;4030;52.362;9.206;2023-05-23T14:31:04;4.47;;;2.20;;
7969;SDS011;4030;52.362;9.206;2023-05-23T14:33:30;5.80;;;2.50;;
7969;SDS011;4030;52.362;9.206;2023-05-23T14:35:56;4.68;;;1.85;;
7969;SDS011;4030;52.362;9.206;2023-05-23T14:38:22;5.05;;;2.38;;
7969;SDS011;4030;52.362;9.206;2023-05-23T14:40:48;5.05;;;2.30;;
7969;SDS011;4030;52.362;9.206;2023-05-23T14:43:14;7.32;;;2.47;;
7969;SDS011;4030;52.362;9.206;2023-05-23T14:45:40;6.95;;;2.47;;
7969;SDS011;4030;52.362;9.206;2023-05-23T14:48:06;5.15;;;2.38;;
7969;SDS011;4030;52.362;9.206;2023-05-23T14:50:33;5.75;;;2.25;;
7969;SDS011;4030;52.362;9.206;2023-05-23T14:52:59;5.95;;;2.05;;
7969;SDS011;4030;52.362;9.206;2023-05-23T14:55:24;4.60;;;2.47;;
7969;SDS011;4030;52.362;9.206;2023-05-23T14:57:50;6.90;;;2.58;;
7969;SDS011;4030;52.362;9.206;2023-05-23T15:00:16;4.78;;;2.47;;
7969;SDS011;4030;52.362;9.206;2023-05-23T15:02:43;4.40;;;2.13;;
7969;SDS011;4030;52.362;9.206;2023-05-23T15:05:10;6.70;;;2.42;;
7969;SDS011;4030;52.362;9.206;2023-05-23T15:07:36;5.05;;;2.35;;
7969;SDS011;4030;52.362;9.206;2023-05-23T15:10:03;3.67;;;1.92;;
7969;SDS011;4030;52.362;9.206;2023-05-23T15:12:30;4.63;;;1.95;;
7969;SDS011;4030;52.362;9.206;2023-05-23T15:14:56;5.90;;;2.03;;
7969;SDS011;4030;52.362;9.206;2023-05-23T15:17:27;6.95;;;2.38;;
7969;SDS011;4030;52.362;9.206;2023-05-23T15:19:56;5.82;;;2.10;;
7969;SDS011;4030;52.362;9.206;2023-05-23T15:22:22;7.25;;;2.38;;
7969;SDS011;4030;52.362;9.206;2023-05-23T15:24:48;5.15;;;2.20;;
7969;SDS011;4030;52.362;9.206;2023-05-23T15:27:14;4.35;;;2.20;;
7969;SDS011;4030;52.362;9.206;2023-05-23T15:29:39;5.32;;;2.10;;
7969;SDS011;4030;52.362;9.206;2023-05-23T15:32:06;4.88;;;2.00;;
7969;SDS011;4030;52.362;9.206;2023-05-23T15:34:32;4.00;;;1.92;;
7969;SDS011;4030;52.362;9.206;2023-05-23T15:36:58;4.88;;;2.40;;
7969;SDS011;4030;52.362;9.206;2023-05-23T15:39:27;5.00;;;2.05;;
7969;SDS011;4030;52.362;9.206;2023-05-23T15:41:52;5.63;;;2.10;;
7969;SDS011;4030;52.362;9.206;2023-05-23T15:44:18;5.15;;;2.10;;